TEI weather

Terminal Airport
Mazapil, Zacatecas, Mexico

Public forecast

Using degrees Celsius for public forecast. Weather courtesy of forecast.io.

METAR (pilot weather report)

Closest report is Plan De Guadalupe International Airport, 58.4 nm (108.2 km) NNE. Retrieved 2019/04/20 15:40 UTC (43 minutes ago):

MMIO 201540Z 03005KT 10SM SKC 23/08 A3026

TAF (pilot weather forecast)

Forecast is more than 6 hours old.

Closest forecast is Plan De Guadalupe International Airport, 58.4 nm (108.2 km) NNE. Retrieved 2019/04/20 06:09 UTC (10 hours ago):

TAF MMIO 200405Z 2006/2106 36005KT P6SM SCT250 FM201600 36010KT P6SM SCT250 FM210200 36005KT P6SM SCT250